Time;durP1;ratioP1;P1;durP2;ratioP2;P2;SDS_P1;SDS_P2;PMS_P1;PMS_P2;Temp;Humidity;BMP_temperature;BMP_pressure;BME280_temperature;BME280_humidity;BME280_pressure;Samples;Min_cycle;Max_cycle;Signal;HPM_P1;HPM_P2
2023/01/22 00:01:29;;;;;;;37.70;20.30;;;0.30;99.90;;;;;;7331259;32;20411;-59
2023/01/22 00:05:31;;;;;;;37.55;19.77;;;0.30;99.90;;;;;;7336727;32;20123;-60
2023/01/22 00:09:33;;;;;;;36.05;20.37;;;0.40;99.90;;;;;;7335497;32;20115;-59
2023/01/22 00:13:34;;;;;;;35.22;19.62;;;0.40;99.90;;;;;;7339302;32;20727;-60
2023/01/22 00:17:36;;;;;;;36.63;20.98;;;0.50;99.90;;;;;;7336838;32;20107;-59
2023/01/22 00:21:38;;;;;;;37.40;21.02;;;0.50;99.90;;;;;;7334115;32;20179;-60
2023/01/22 00:25:40;;;;;;;37.03;20.83;;;0.50;99.90;;;;;;7339668;32;20190;-60
2023/01/22 00:29:41;;;;;;;36.17;19.00;;;0.50;99.90;;;;;;7337436;32;20281;-59
2023/01/22 00:33:44;;;;;;;32.22;18.70;;;0.70;99.90;;;;;;7335265;32;20481;-60
2023/01/22 00:37:47;;;;;;;33.30;18.58;;;0.70;99.90;;;;;;7345450;32;20156;-59
2023/01/22 00:41:49;;;;;;;34.63;19.92;;;0.70;99.90;;;;;;7346288;32;20244;-59
2023/01/22 00:45:50;;;;;;;35.30;19.73;;;0.60;99.90;;;;;;7342506;32;20103;-59
2023/01/22 00:49:52;;;;;;;34.92;20.08;;;0.60;99.90;;;;;;7337742;32;20753;-59
2023/01/22 00:53:54;;;;;;;37.05;19.92;;;0.60;99.90;;;;;;7339537;32;20113;-59
2023/01/22 00:57:56;;;;;;;35.35;20.45;;;0.60;99.90;;;;;;7347591;32;20240;-59
2023/01/22 01:01:58;;;;;;;35.58;19.30;;;0.60;99.90;;;;;;7332533;32;20427;-60
2023/01/22 01:06:13;;;;;;;35.63;19.87;;;0.60;99.90;;;;;;7347112;32;20301;-60
2023/01/22 01:10:15;;;;;;;33.83;19.27;;;0.60;99.90;;;;;;7339871;32;20265;-59
2023/01/22 01:14:17;;;;;;;35.50;19.98;;;0.70;99.90;;;;;;7335677;32;20744;-60
2023/01/22 01:18:20;;;;;;;32.33;19.23;;;0.60;99.90;;;;;;7337218;32;20709;-60
2023/01/22 01:22:22;;;;;;;34.20;19.48;;;0.60;99.90;;;;;;7341025;32;20197;-60
2023/01/22 01:26:24;;;;;;;35.20;20.00;;;0.60;99.90;;;;;;7346439;32;20714;-59
2023/01/22 01:30:26;;;;;;;36.03;19.92;;;0.60;99.90;;;;;;7344253;32;20291;-59
2023/01/22 01:34:27;;;;;;;35.53;18.90;;;0.60;99.90;;;;;;7337752;32;20210;-60
2023/01/22 01:38:29;;;;;;;35.28;20.10;;;0.70;99.90;;;;;;7349235;32;20289;-59
2023/01/22 01:42:37;;;;;;;34.63;19.05;;;0.60;99.90;;;;;;7341312;32;20685;-60
2023/01/22 01:46:43;;;;;;;33.97;19.52;;;0.50;99.90;;;;;;7341317;32;20115;-60
2023/01/22 01:50:58;;;;;;;33.70;19.30;;;0.50;99.90;;;;;;7337940;32;20543;-60
2023/01/22 01:55:00;;;;;;;36.78;20.80;;;0.50;99.90;;;;;;7344924;32;20137;-59
2023/01/22 01:59:06;;;;;;;34.42;19.90;;;0.50;99.90;;;;;;7338585;32;20582;-59
2023/01/22 02:03:07;;;;;;;34.72;19.23;;;0.50;99.90;;;;;;7345500;32;20581;-60
2023/01/22 02:07:09;;;;;;;33.47;19.25;;;0.60;99.90;;;;;;7338800;32;20232;-60
2023/01/22 02:11:12;;;;;;;32.78;19.75;;;0.60;99.90;;;;;;7337803;32;20513;-59
2023/01/22 02:15:14;;;;;;;31.27;18.62;;;0.60;99.90;;;;;;7342084;32;20536;-60
2023/01/22 02:19:15;;;;;;;36.28;20.05;;;0.50;99.90;;;;;;7346567;32;20347;-60
2023/01/22 02:23:17;;;;;;;38.00;20.77;;;0.50;99.90;;;;;;7338998;32;20520;-60
2023/01/22 02:27:19;;;;;;;35.13;19.95;;;0.50;99.90;;;;;;7342779;32;20698;-60
2023/01/22 02:31:20;;;;;;;33.42;20.42;;;0.50;99.90;;;;;;7337044;32;20129;-59
2023/01/22 02:35:22;;;;;;;36.63;21.25;;;0.50;99.90;;;;;;7338312;32;20289;-59
2023/01/22 02:39:24;;;;;;;34.30;20.52;;;0.50;99.90;;;;;;7342044;32;20104;-59
2023/01/22 02:43:25;;;;;;;34.08;20.35;;;0.60;99.90;;;;;;7339484;32;20111;-60
2023/01/22 02:47:27;;;;;;;34.38;20.95;;;0.40;99.90;;;;;;7337981;32;20602;-60
2023/01/22 02:51:29;;;;;;;34.53;21.12;;;0.50;99.90;;;;;;7344334;32;20217;-60
2023/01/22 02:55:31;;;;;;;31.10;18.98;;;0.50;99.90;;;;;;7338257;32;20129;-59
2023/01/22 02:59:33;;;;;;;34.70;20.50;;;0.50;99.90;;;;;;7339276;32;20504;-60
2023/01/22 03:03:35;;;;;;;32.40;20.92;;;0.50;99.90;;;;;;7335789;32;20163;-60
2023/01/22 03:07:43;;;;;;;34.15;19.15;;;0.50;99.90;;;;;;7340820;32;20108;-61
2023/01/22 03:11:46;;;;;;;32.35;20.58;;;0.50;99.90;;;;;;7338408;32;20195;-59
2023/01/22 03:24:29;;;;;;;31.90;19.17;;;0.50;99.90;;;;;;7339004;32;20643;-60
2023/01/22 03:28:31;;;;;;;29.67;18.35;;;0.60;99.90;;;;;;7334093;32;20119;-59
2023/01/22 03:32:33;;;;;;;32.53;19.92;;;0.50;99.90;;;;;;7321327;32;20166;-59
2023/01/22 03:36:35;;;;;;;29.92;18.45;;;0.50;99.90;;;;;;7341230;32;20131;-59
2023/01/22 03:40:36;;;;;;;30.27;19.23;;;0.50;99.90;;;;;;7339155;32;20462;-61
2023/01/22 03:44:38;;;;;;;30.33;19.00;;;0.50;99.90;;;;;;7343465;32;20125;-60
2023/01/22 03:48:40;;;;;;;29.85;17.80;;;0.50;99.90;;;;;;7336860;32;20186;-59
2023/01/22 03:52:42;;;;;;;27.65;17.48;;;0.50;99.90;;;;;;7341484;32;20103;-59
2023/01/22 03:56:44;;;;;;;28.40;17.85;;;0.50;99.90;;;;;;7336851;32;20320;-59
2023/01/22 04:00:47;;;;;;;23.42;16.33;;;0.40;99.90;;;;;;7341024;32;20688;-59
2023/01/22 04:04:49;;;;;;;30.00;18.77;;;0.50;99.90;;;;;;7346015;32;20104;-59
2023/01/22 04:08:53;;;;;;;26.00;17.67;;;0.50;99.90;;;;;;7337056;32;20111;-60
2023/01/22 04:12:55;;;;;;;25.25;17.15;;;0.40;99.90;;;;;;7345665;32;20259;-60
2023/01/22 04:16:56;;;;;;;24.73;16.45;;;0.50;99.90;;;;;;7341636;32;20338;-61
2023/01/22 04:20:58;;;;;;;31.48;18.40;;;0.50;99.90;;;;;;7347756;32;20156;-59
2023/01/22 04:25:00;;;;;;;24.77;16.73;;;0.40;99.90;;;;;;7343228;32;20226;-60
2023/01/22 04:29:02;;;;;;;26.37;17.35;;;0.40;99.90;;;;;;7345746;32;20135;-59
2023/01/22 04:33:04;;;;;;;27.65;17.15;;;0.40;99.90;;;;;;7337463;32;20138;-59
2023/01/22 04:37:05;;;;;;;25.15;16.85;;;0.40;99.90;;;;;;7347374;32;20754;-60
2023/01/22 04:41:07;;;;;;;22.33;15.43;;;0.40;99.90;;;;;;7342298;32;20130;-61
2023/01/22 04:45:09;;;;;;;24.48;17.05;;;0.40;99.90;;;;;;7348178;32;20106;-60
2023/01/22 04:49:11;;;;;;;24.63;16.65;;;0.40;99.90;;;;;;7348617;32;20736;-59
2023/01/22 04:53:13;;;;;;;22.85;16.23;;;0.30;99.90;;;;;;7337150;32;20592;-60
2023/01/22 04:57:14;;;;;;;25.30;15.98;;;0.40;99.90;;;;;;7344481;32;20525;-59
2023/01/22 05:01:16;;;;;;;23.27;15.82;;;0.40;99.90;;;;;;7344451;32;20129;-60
2023/01/22 05:05:18;;;;;;;26.23;17.02;;;0.50;99.90;;;;;;7343996;32;20129;-59
2023/01/22 05:09:20;;;;;;;25.35;16.80;;;0.40;99.90;;;;;;7343282;32;20218;-59
2023/01/22 05:13:21;;;;;;;23.08;16.08;;;0.40;99.90;;;;;;7345233;32;20269;-59
2023/01/22 05:17:23;;;;;;;24.42;16.23;;;0.40;99.90;;;;;;7335741;32;20154;-59
2023/01/22 05:21:25;;;;;;;25.55;17.37;;;0.40;99.90;;;;;;7329345;32;20122;-59
2023/01/22 05:25:27;;;;;;;24.70;17.33;;;0.40;99.90;;;;;;7345409;32;20679;-59
2023/01/22 05:29:29;;;;;;;27.45;17.23;;;0.30;99.90;;;;;;7347518;32;20189;-59
2023/01/22 05:33:31;;;;;;;26.85;18.20;;;0.40;99.90;;;;;;7338757;32;20107;-60
2023/01/22 05:37:33;;;;;;;27.23;17.50;;;0.30;99.90;;;;;;7344660;32;20208;-59
2023/01/22 05:41:34;;;;;;;25.90;17.27;;;0.40;99.90;;;;;;7344504;32;20597;-59
2023/01/22 05:45:36;;;;;;;27.48;17.48;;;0.40;99.90;;;;;;7342627;32;20133;-61
2023/01/22 05:49:38;;;;;;;30.40;18.83;;;0.30;99.90;;;;;;7340519;32;20210;-61
2023/01/22 05:53:40;;;;;;;25.23;16.92;;;0.30;99.90;;;;;;7344208;32;20241;-59
2023/01/22 05:57:41;;;;;;;29.95;18.20;;;0.40;99.90;;;;;;7338705;32;20570;-60
2023/01/22 06:01:43;;;;;;;28.62;18.90;;;0.30;99.90;;;;;;7337827;32;20230;-59
2023/01/22 06:05:45;;;;;;;26.87;18.80;;;0.30;99.90;;;;;;7345106;32;20200;-59
2023/01/22 06:09:47;;;;;;;27.33;18.20;;;0.40;99.90;;;;;;7340842;32;20103;-60
2023/01/22 06:13:48;;;;;;;30.27;19.45;;;0.40;99.90;;;;;;7344995;32;20336;-60
2023/01/22 06:17:50;;;;;;;31.95;20.90;;;0.30;99.90;;;;;;7344859;32;20409;-59
2023/01/22 06:21:52;;;;;;;30.30;18.70;;;0.40;99.90;;;;;;7336766;32;20099;-59
2023/01/22 06:25:56;;;;;;;28.58;18.67;;;0.40;99.90;;;;;;7338719;32;20545;-59
2023/01/22 06:29:58;;;;;;;30.75;20.48;;;0.50;99.90;;;;;;7338442;32;20142;-59
2023/01/22 06:34:00;;;;;;;31.62;20.05;;;0.50;99.90;;;;;;7345865;32;20325;-59
2023/01/22 06:38:02;;;;;;;27.17;17.58;;;0.50;99.90;;;;;;7331872;32;20263;-59
2023/01/22 06:42:04;;;;;;;25.30;17.10;;;0.50;99.90;;;;;;7338373;32;20556;-60
2023/01/22 06:46:06;;;;;;;24.23;16.30;;;0.50;99.90;;;;;;7335683;32;20107;-60
2023/01/22 06:50:09;;;;;;;26.65;16.10;;;0.50;99.90;;;;;;7340956;32;20106;-59
2023/01/22 06:54:11;;;;;;;25.70;16.92;;;0.40;99.90;;;;;;7335184;32;20587;-60
2023/01/22 06:58:13;;;;;;;25.62;16.85;;;0.40;99.90;;;;;;7340766;32;20112;-59
2023/01/22 07:02:16;;;;;;;24.10;15.68;;;0.40;99.90;;;;;;7339941;32;20111;-59
2023/01/22 07:06:18;;;;;;;24.52;16.23;;;0.40;99.90;;;;;;7343391;32;20111;-59
2023/01/22 07:10:20;;;;;;;23.67;15.73;;;0.40;99.90;;;;;;7344263;32;20698;-59
2023/01/22 07:14:22;;;;;;;22.08;15.38;;;0.50;99.90;;;;;;7333693;32;20249;-59
2023/01/22 07:18:37;;;;;;;18.48;13.35;;;0.50;99.90;;;;;;7339802;32;20126;-60
2023/01/22 07:22:39;;;;;;;23.15;15.05;;;0.60;99.90;;;;;;7332393;32;20234;-60
2023/01/22 07:26:42;;;;;;;21.45;14.38;;;0.50;99.90;;;;;;7332262;32;20695;-60
2023/01/22 07:30:45;;;;;;;18.05;14.00;;;0.60;99.90;;;;;;7333162;32;20102;-60
2023/01/22 07:34:47;;;;;;;30.37;17.90;;;0.60;99.90;;;;;;7331915;32;20171;-61
2023/01/22 07:38:49;;;;;;;32.70;17.15;;;0.50;99.90;;;;;;7347797;32;20276;-61
2023/01/22 07:42:51;;;;;;;27.27;19.75;;;0.50;99.90;;;;;;7338940;32;20117;-61
2023/01/22 07:46:53;;;;;;;26.05;20.02;;;0.50;99.90;;;;;;7331025;32;20271;-60
2023/01/22 07:51:03;;;;;;;19.73;14.77;;;0.50;99.90;;;;;;7327510;32;20597;-60
2023/01/22 07:55:05;;;;;;;20.65;15.75;;;0.60;99.90;;;;;;7334939;32;20425;-60
2023/01/22 07:59:07;;;;;;;20.65;15.70;;;0.50;99.90;;;;;;7337544;32;20157;-62
2023/01/22 08:03:09;;;;;;;22.02;15.60;;;0.50;99.90;;;;;;7340928;32;20210;-60
2023/01/22 08:07:15;;;;;;;20.60;15.80;;;0.50;99.90;;;;;;7333001;32;20242;-61
2023/01/22 08:11:17;;;;;;;24.12;17.00;;;0.60;99.90;;;;;;7340794;32;20770;-63
2023/01/22 08:15:19;;;;;;;23.35;18.37;;;0.50;99.90;;;;;;7335010;32;20117;-63
2023/01/22 08:19:21;;;;;;;30.35;22.13;;;0.50;99.90;;;;;;7337668;32;20335;-62
2023/01/22 08:23:22;;;;;;;30.35;20.37;;;0.50;99.90;;;;;;7329098;32;20249;-62
2023/01/22 08:27:24;;;;;;;24.05;17.75;;;0.50;99.90;;;;;;7330749;32;20115;-62
2023/01/22 08:31:26;;;;;;;23.98;17.33;;;0.60;99.90;;;;;;7327033;32;20258;-63
2023/01/22 08:35:30;;;;;;;26.27;17.15;;;0.60;99.90;;;;;;7331877;32;20119;-63
2023/01/22 08:39:31;;;;;;;26.95;19.10;;;0.60;99.90;;;;;;7325210;32;20238;-60
2023/01/22 08:43:33;;;;;;;26.20;19.12;;;0.60;99.90;;;;;;7333490;32;20246;-63
2023/01/22 08:47:35;;;;;;;26.30;17.00;;;0.70;99.90;;;;;;7335259;32;20162;-61
2023/01/22 08:51:36;;;;;;;26.05;17.52;;;0.60;99.90;;;;;;7338656;32;20131;-62
2023/01/22 08:55:38;;;;;;;24.73;18.30;;;0.70;99.90;;;;;;7342862;32;20107;-62
2023/01/22 08:59:40;;;;;;;26.12;17.10;;;0.70;99.90;;;;;;7341919;32;20853;-62
2023/01/22 09:03:45;;;;;;;24.52;18.10;;;0.70;99.90;;;;;;7330734;32;20175;-63
2023/01/22 09:07:47;;;;;;;24.35;17.37;;;0.70;99.90;;;;;;7333386;32;20593;-61
2023/01/22 09:11:48;;;;;;;24.58;16.70;;;0.70;99.90;;;;;;7337882;32;20636;-62
2023/01/22 09:15:54;;;;;;;24.00;16.05;;;0.80;99.90;;;;;;7337377;32;20797;-61
2023/01/22 09:19:58;;;;;;;24.87;16.62;;;0.80;99.90;;;;;;7333808;32;20095;-59
2023/01/22 09:23:59;;;;;;;22.50;16.30;;;0.80;99.90;;;;;;7329367;32;20103;-62
2023/01/22 09:28:03;;;;;;;23.25;16.15;;;0.90;99.90;;;;;;7332096;32;20198;-61
2023/01/22 09:32:05;;;;;;;24.52;16.77;;;0.90;99.90;;;;;;7338775;32;20108;-62
2023/01/22 09:36:12;;;;;;;22.50;16.17;;;0.90;99.90;;;;;;7335104;32;20243;-63
2023/01/22 09:40:49;;;;;;;22.70;17.25;;;0.90;99.90;;;;;;7344704;32;20117;-62
2023/01/22 09:44:54;;;;;;;22.70;15.90;;;1.00;99.90;;;;;;7345005;32;20279;-62
2023/01/22 09:49:02;;;;;;;21.12;15.00;;;1.00;99.90;;;;;;7344911;32;20163;-62
2023/01/22 09:53:06;;;;;;;20.10;15.40;;;0.90;99.90;;;;;;7348663;32;20126;-62
2023/01/22 09:57:12;;;;;;;22.85;17.48;;;0.90;99.90;;;;;;7348875;32;20190;-62
2023/01/22 10:01:32;;;;;;;22.27;16.42;;;1.00;99.90;;;;;;7341734;32;20191;-61
2023/01/22 10:05:36;;;;;;;21.45;15.60;;;1.00;99.90;;;;;;7340133;32;20619;-61
2023/01/22 10:09:39;;;;;;;22.95;16.23;;;1.10;99.90;;;;;;7342019;32;20510;-61
2023/01/22 10:13:41;;;;;;;20.60;15.45;;;1.00;99.90;;;;;;7337317;32;20096;-61
2023/01/22 10:17:43;;;;;;;22.50;16.33;;;1.10;99.90;;;;;;7340502;32;20121;-63
2023/01/22 10:21:48;;;;;;;21.20;15.18;;;1.00;99.90;;;;;;7337095;32;20194;-62
2023/01/22 10:26:10;;;;;;;23.10;16.23;;;1.00;99.90;;;;;;7336920;32;20189;-60
2023/01/22 10:30:23;;;;;;;24.27;16.10;;;1.00;99.90;;;;;;7334653;32;20107;-60
2023/01/22 10:34:35;;;;;;;30.67;20.83;;;1.10;99.90;;;;;;7340720;32;20125;-61
2023/01/22 10:38:37;;;;;;;24.80;17.52;;;1.10;99.90;;;;;;7333789;32;20127;-61
2023/01/22 10:42:39;;;;;;;22.25;15.60;;;1.10;99.90;;;;;;7341193;32;20616;-60
2023/01/22 10:46:41;;;;;;;21.95;15.82;;;1.10;99.90;;;;;;7335652;32;20561;-61
2023/01/22 10:50:44;;;;;;;24.23;16.48;;;1.10;99.90;;;;;;7340060;32;20099;-61
2023/01/22 10:54:56;;;;;;;26.83;16.87;;;1.10;99.90;;;;;;7343864;32;20527;-61
2023/01/22 10:59:02;;;;;;;26.05;18.42;;;1.00;99.90;;;;;;7332103;32;20187;-61
2023/01/22 11:03:35;;;;;;;26.55;18.45;;;1.10;99.90;;;;;;7345206;32;20130;-61
2023/01/22 11:07:37;;;;;;;24.87;18.37;;;1.10;99.90;;;;;;7328431;32;20172;-62
2023/01/22 11:11:49;;;;;;;24.65;17.50;;;1.10;99.90;;;;;;7342495;32;20230;-60
2023/01/22 11:16:09;;;;;;;29.30;20.37;;;1.10;99.90;;;;;;7342743;32;20267;-61
2023/01/22 11:20:31;;;;;;;32.08;20.50;;;1.10;99.90;;;;;;7346634;32;20112;-61
2023/01/22 11:24:41;;;;;;;30.10;20.58;;;1.20;99.90;;;;;;7335294;32;20441;-61
2023/01/22 11:29:20;;;;;;;26.52;20.12;;;1.20;99.90;;;;;;7339528;32;20186;-61
2023/01/22 11:33:35;;;;;;;23.85;18.12;;;1.30;99.90;;;;;;7342571;32;20259;-60
2023/01/22 11:37:56;;;;;;;31.70;22.83;;;1.30;99.90;;;;;;7335565;32;20112;-61
2023/01/22 11:42:05;;;;;;;28.95;20.25;;;1.30;99.90;;;;;;7319513;32;20164;-61
2023/01/22 11:46:24;;;;;;;25.30;18.55;;;1.20;99.90;;;;;;7340761;32;20103;-62
2023/01/22 11:50:43;;;;;;;28.62;20.33;;;1.30;99.90;;;;;;7337435;32;20218;-63
2023/01/22 11:55:03;;;;;;;26.75;17.83;;;1.30;99.90;;;;;;7339853;32;20103;-61
2023/01/22 11:59:27;;;;;;;24.05;17.30;;;1.40;99.90;;;;;;7341949;32;20240;-62
2023/01/22 12:03:58;;;;;;;24.95;17.92;;;1.40;99.90;;;;;;7342491;32;20554;-62
2023/01/22 12:08:00;;;;;;;23.15;16.75;;;1.40;99.90;;;;;;7313174;32;20594;-61
2023/01/22 12:12:16;;;;;;;24.30;16.98;;;1.30;99.90;;;;;;7343066;32;20100;-61
2023/01/22 12:16:18;;;;;;;23.55;16.12;;;1.40;99.90;;;;;;7336339;32;20133;-61
2023/01/22 12:20:44;;;;;;;21.23;15.48;;;1.40;99.90;;;;;;7339081;32;20221;-61
2023/01/22 12:25:12;;;;;;;21.20;15.98;;;1.50;99.90;;;;;;7340843;32;20122;-62
2023/01/22 12:29:23;;;;;;;22.27;15.10;;;1.40;99.90;;;;;;7342753;32;20129;-61
2023/01/22 12:33:30;;;;;;;24.12;16.58;;;1.60;99.90;;;;;;7345683;32;20111;-61
2023/01/22 12:37:43;;;;;;;;;;;1.40;99.90;;;;;;7345904;32;20255;-61
2023/01/22 12:41:55;;;;;;;20.05;14.87;;;1.50;99.90;;;;;;7341728;32;20010;-60
2023/01/22 12:46:06;;;;;;;20.00;14.48;;;1.60;99.90;;;;;;7342489;32;20248;-60
2023/01/22 12:50:19;;;;;;;19.02;14.45;;;1.60;99.90;;;;;;7349511;32;20119;-62
2023/01/22 12:54:25;;;;;;;18.70;14.25;;;1.60;99.90;;;;;;7341104;32;20688;-63
2023/01/22 12:58:29;;;;;;;21.83;15.25;;;1.70;99.90;;;;;;7346979;32;20107;-60
2023/01/22 13:02:36;;;;;;;21.00;15.00;;;1.70;99.90;;;;;;7349444;32;20145;-61
2023/01/22 13:06:40;;;;;;;21.70;15.73;;;1.70;99.90;;;;;;7345271;32;20160;-61
2023/01/22 13:10:57;;;;;;;22.33;15.10;;;1.60;99.90;;;;;;7343368;32;20191;-61
2023/01/22 13:14:59;;;;;;;21.27;15.48;;;1.50;99.90;;;;;;7349541;32;20121;-60
2023/01/22 13:19:18;;;;;;;21.37;15.80;;;1.60;99.90;;;;;;7349377;32;20170;-61
2023/01/22 13:23:20;;;;;;;24.00;15.75;;;1.50;99.90;;;;;;7342866;32;21034;-61
2023/01/22 13:27:33;;;;;;;23.73;15.73;;;1.60;99.90;;;;;;7351699;32;20212;-62
2023/01/22 13:31:34;;;;;;;23.02;14.95;;;1.60;99.90;;;;;;7346170;32;20129;-60
2023/01/22 13:35:41;;;;;;;25.02;16.05;;;1.70;99.90;;;;;;7344102;32;20473;-61
2023/01/22 13:39:42;;;;;;;25.90;17.43;;;1.70;99.90;;;;;;7349293;32;20306;-61
2023/01/22 13:43:44;;;;;;;28.15;17.75;;;1.80;99.90;;;;;;7345929;32;20129;-60
2023/01/22 13:47:46;;;;;;;28.02;18.45;;;1.70;99.90;;;;;;7347743;32;20110;-60
2023/01/22 13:51:49;;;;;;;25.73;17.05;;;1.70;99.90;;;;;;7341369;32;20126;-60
2023/01/22 13:55:51;;;;;;;29.00;19.95;;;1.70;99.90;;;;;;7345952;32;20170;-60
2023/01/22 13:59:55;;;;;;;26.40;17.92;;;1.70;99.90;;;;;;7342023;32;20225;-60
2023/01/22 14:04:04;;;;;;;28.08;19.90;;;1.70;99.90;;;;;;7344407;32;20115;-60
2023/01/22 14:08:11;;;;;;;30.48;19.40;;;1.70;99.90;;;;;;7339873;32;20199;-60
2023/01/22 14:12:22;;;;;;;25.35;17.12;;;1.80;99.90;;;;;;7340376;32;20269;-62
2023/01/22 14:16:23;;;;;;;46.33;23.98;;;1.80;99.90;;;;;;7343885;32;20128;-62
2023/01/22 14:20:25;;;;;;;32.65;20.02;;;1.80;99.90;;;;;;7332132;32;20228;-61
2023/01/22 14:24:27;;;;;;;32.63;20.20;;;1.80;99.90;;;;;;7348505;32;20126;-60
2023/01/22 14:28:30;;;;;;;35.22;22.00;;;1.80;99.90;;;;;;7340344;32;20184;-61
2023/01/22 14:32:31;;;;;;;28.30;18.37;;;1.80;99.90;;;;;;7342246;32;20111;-61
2023/01/22 14:36:33;;;;;;;34.35;22.58;;;1.80;99.90;;;;;;7344684;32;20227;-61
2023/01/22 14:40:35;;;;;;;46.15;27.20;;;1.80;99.90;;;;;;7344435;32;20108;-61
2023/01/22 14:44:55;;;;;;;30.50;19.87;;;1.80;99.90;;;;;;7347528;32;20264;-62
2023/01/22 14:49:00;;;;;;;25.73;17.33;;;1.80;99.90;;;;;;7342125;32;20125;-62
2023/01/22 14:53:02;;;;;;;29.02;18.48;;;1.70;99.90;;;;;;7342478;32;20098;-64
2023/01/22 14:57:03;;;;;;;24.90;17.60;;;1.80;99.90;;;;;;7345690;32;20322;-61
2023/01/22 15:01:23;;;;;;;27.85;17.23;;;1.90;99.90;;;;;;7344738;32;20245;-60
2023/01/22 15:05:26;;;;;;;26.95;17.65;;;1.90;99.90;;;;;;7346411;32;20160;-60
2023/01/22 15:09:28;;;;;;;28.17;18.80;;;1.90;99.90;;;;;;7343621;32;20524;-60
2023/01/22 15:13:29;;;;;;;31.92;20.20;;;1.90;99.90;;;;;;7334128;32;20211;-61
2023/01/22 15:17:31;;;;;;;33.60;21.75;;;1.90;99.90;;;;;;7339667;32;20215;-61
2023/01/22 15:21:33;;;;;;;32.53;21.60;;;1.80;99.90;;;;;;7342734;32;20290;-60
2023/01/22 15:25:35;;;;;;;31.77;20.02;;;1.80;99.90;;;;;;7347600;32;20103;-60
2023/01/22 15:29:37;;;;;;;37.53;23.35;;;1.80;99.90;;;;;;7341657;32;20191;-60
2023/01/22 15:33:38;;;;;;;38.90;23.17;;;1.80;99.90;;;;;;7344017;32;20572;-60
2023/01/22 15:37:40;;;;;;;34.88;20.95;;;1.70;99.90;;;;;;7347055;32;20179;-60
2023/01/22 15:41:42;;;;;;;29.65;19.73;;;1.70;99.90;;;;;;7339009;32;20131;-60
2023/01/22 15:45:44;;;;;;;30.88;19.83;;;1.70;99.90;;;;;;7338900;32;20215;-61
2023/01/22 15:49:45;;;;;;;28.95;19.67;;;1.70;99.90;;;;;;7342638;32;20327;-59
2023/01/22 15:53:49;;;;;;;31.95;20.95;;;1.80;99.90;;;;;;7344489;32;20829;-60
2023/01/22 15:57:51;;;;;;;31.73;20.55;;;1.70;99.90;;;;;;7345250;32;20185;-60
2023/01/22 16:01:52;;;;;;;33.80;20.35;;;1.80;99.90;;;;;;7338292;32;20256;-62
2023/01/22 16:05:54;;;;;;;34.45;20.37;;;1.80;99.90;;;;;;7352435;32;20283;-63
2023/01/22 16:09:56;;;;;;;34.95;20.35;;;1.70;99.90;;;;;;7349430;32;20170;-61
2023/01/22 16:13:58;;;;;;;33.28;19.27;;;1.70;99.90;;;;;;7352677;32;20715;-62
2023/01/22 16:18:00;;;;;;;27.98;19.37;;;1.70;99.90;;;;;;7350806;32;20531;-60
2023/01/22 16:22:01;;;;;;;27.85;18.00;;;1.80;99.90;;;;;;7349778;32;20235;-60
2023/01/22 16:26:09;;;;;;;27.30;18.15;;;1.80;99.90;;;;;;7355522;32;20438;-59
2023/01/22 16:30:12;;;;;;;28.40;18.48;;;1.80;99.90;;;;;;7348813;32;20106;-60
2023/01/22 16:34:16;;;;;;;34.97;19.77;;;1.70;99.90;;;;;;7340650;32;20107;-60
2023/01/22 16:38:18;;;;;;;31.02;19.80;;;1.70;99.90;;;;;;7344585;32;20176;-60
2023/01/22 16:42:20;;;;;;;37.05;20.40;;;1.70;99.90;;;;;;7347268;32;20178;-60
2023/01/22 16:46:24;;;;;;;32.40;18.90;;;1.70;99.90;;;;;;7346963;32;20183;-61
2023/01/22 16:50:26;;;;;;;29.58;18.80;;;1.70;99.90;;;;;;7346032;32;20137;-60
2023/01/22 16:54:30;;;;;;;33.25;19.67;;;1.70;99.90;;;;;;7342244;32;20099;-60
2023/01/22 16:58:32;;;;;;;34.97;19.33;;;1.70;99.90;;;;;;7350587;32;20170;-61
2023/01/22 17:02:33;;;;;;;32.85;20.52;;;1.70;99.90;;;;;;7346329;32;20744;-60
2023/01/22 17:06:44;;;;;;;34.10;19.98;;;1.70;99.90;;;;;;7343503;32;20111;-61
2023/01/22 17:10:46;;;;;;;31.90;20.02;;;1.70;99.90;;;;;;7350036;32;20123;-60
2023/01/22 17:14:51;;;;;;;73.20;33.10;;;1.60;99.90;;;;;;7346414;32;20100;-61
2023/01/22 17:18:54;;;;;;;57.90;30.30;;;1.70;99.90;;;;;;7345890;32;20133;-59
2023/01/22 17:22:56;;;;;;;38.33;22.77;;;1.70;99.90;;;;;;7351065;32;20256;-59
2023/01/22 17:27:01;;;;;;;39.28;22.08;;;1.60;99.90;;;;;;7344622;32;20108;-59
2023/01/22 17:31:10;;;;;;;41.70;24.80;;;1.60;99.90;;;;;;7350416;32;20171;-59
2023/01/22 17:35:13;;;;;;;36.97;21.95;;;1.60;99.90;;;;;;7343475;32;20198;-59
2023/01/22 17:39:16;;;;;;;40.28;23.38;;;1.70;99.90;;;;;;7345537;32;20126;-60
2023/01/22 17:43:17;;;;;;;39.47;23.55;;;1.60;99.90;;;;;;7344801;32;20103;-60
2023/01/22 17:47:19;;;;;;;43.40;24.70;;;1.70;99.90;;;;;;7350781;32;20170;-60
2023/01/22 17:51:27;;;;;;;36.38;22.62;;;1.70;99.90;;;;;;7344900;32;20115;-60
2023/01/22 17:55:28;;;;;;;44.38;24.75;;;1.70;99.90;;;;;;7347550;32;20163;-60
2023/01/22 17:59:30;;;;;;;38.65;22.85;;;1.60;99.90;;;;;;7349649;32;20123;-61
2023/01/22 18:03:32;;;;;;;45.47;23.62;;;1.70;99.90;;;;;;7351166;32;20108;-60
2023/01/22 18:07:34;;;;;;;34.63;20.77;;;1.60;99.90;;;;;;7345850;32;20190;-61
2023/01/22 18:11:37;;;;;;;41.37;22.65;;;1.70;99.90;;;;;;7351493;32;20215;-60
2023/01/22 18:15:44;;;;;;;37.08;21.60;;;1.70;99.90;;;;;;7351738;32;20525;-61
2023/01/22 18:19:46;;;;;;;36.20;20.70;;;1.70;99.90;;;;;;7341909;32;20127;-62
2023/01/22 18:23:48;;;;;;;37.33;22.17;;;1.70;99.90;;;;;;7346598;32;20623;-60
2023/01/22 18:27:50;;;;;;;40.58;22.45;;;1.70;99.90;;;;;;7346459;32;20164;-61
2023/01/22 18:31:52;;;;;;;38.53;21.08;;;1.70;99.90;;;;;;7344807;32;20104;-62
2023/01/22 18:35:54;;;;;;;39.60;25.33;;;1.80;99.90;;;;;;7346845;32;20213;-62
2023/01/22 18:39:55;;;;;;;43.65;22.33;;;1.70;99.90;;;;;;7341641;32;20099;-63
2023/01/22 18:43:59;;;;;;;38.30;20.30;;;1.80;99.90;;;;;;7347145;32;20112;-61
2023/01/22 18:48:01;;;;;;;41.00;22.42;;;1.70;99.90;;;;;;7349199;32;20676;-59
2023/01/22 18:52:03;;;;;;;35.08;20.40;;;1.70;99.90;;;;;;7339234;32;20262;-59
2023/01/22 18:56:06;;;;;;;34.35;21.60;;;1.80;99.90;;;;;;7345735;32;20951;-64
2023/01/22 19:00:10;;;;;;;40.55;24.73;;;1.90;99.90;;;;;;7341565;32;20142;-61
2023/01/22 19:04:17;;;;;;;37.13;22.75;;;1.80;99.90;;;;;;7329691;32;20107;-60
2023/01/22 19:08:21;;;;;;;37.78;21.98;;;1.80;99.90;;;;;;7338221;32;20596;-61
2023/01/22 19:12:22;;;;;;;33.78;21.10;;;1.90;99.90;;;;;;7337441;32;20141;-60
2023/01/22 19:16:25;;;;;;;38.15;22.48;;;1.80;99.90;;;;;;7336834;32;20120;-60
2023/01/22 19:20:26;;;;;;;37.33;21.33;;;1.90;99.90;;;;;;7341936;32;20108;-61
2023/01/22 19:24:29;;;;;;;39.78;22.60;;;1.90;99.90;;;;;;7342374;32;20520;-60
2023/01/22 19:28:31;;;;;;;41.78;23.33;;;1.90;99.90;;;;;;7336417;32;20168;-60
2023/01/22 19:32:36;;;;;;;41.72;23.27;;;1.80;99.90;;;;;;7343734;32;20612;-61
2023/01/22 19:36:39;;;;;;;48.47;24.60;;;1.80;99.90;;;;;;7340102;32;20104;-61
2023/01/22 19:40:43;;;;;;;42.15;23.65;;;1.80;99.90;;;;;;7338813;32;20108;-61
2023/01/22 19:44:45;;;;;;;44.15;23.02;;;1.80;99.90;;;;;;7332421;32;20202;-61
2023/01/22 19:48:46;;;;;;;44.50;23.73;;;1.80;99.90;;;;;;7338211;32;20259;-62
2023/01/22 19:52:48;;;;;;;47.08;27.23;;;1.80;99.90;;;;;;7336108;32;20329;-61
2023/01/22 19:56:50;;;;;;;41.60;23.87;;;1.80;99.90;;;;;;7336785;32;20485;-60
2023/01/22 20:00:53;;;;;;;44.92;25.10;;;1.80;99.90;;;;;;7345468;32;20111;-61
2023/01/22 20:04:55;;;;;;;42.33;23.17;;;1.80;99.90;;;;;;7343266;32;20221;-60
2023/01/22 20:08:56;;;;;;;42.85;24.65;;;1.80;99.90;;;;;;7335616;32;20435;-61
2023/01/22 20:12:59;;;;;;;44.40;25.05;;;1.80;99.90;;;;;;7340372;32;20125;-59
2023/01/22 20:17:01;;;;;;;51.67;26.67;;;1.80;99.90;;;;;;7337451;32;20501;-60
2023/01/22 20:21:03;;;;;;;51.58;25.60;;;1.80;99.90;;;;;;7331824;32;20168;-60
2023/01/22 20:25:06;;;;;;;50.53;25.60;;;1.80;99.90;;;;;;7336907;32;20855;-60
2023/01/22 20:29:10;;;;;;;46.88;24.35;;;1.90;99.90;;;;;;7342270;32;20115;-61
2023/01/22 20:33:12;;;;;;;50.38;26.87;;;1.90;99.90;;;;;;7343828;32;20613;-59
2023/01/22 20:37:14;;;;;;;44.90;25.30;;;1.90;99.90;;;;;;7340182;32;20195;-62
2023/01/22 20:41:17;;;;;;;52.40;27.25;;;1.90;99.90;;;;;;7341774;32;20234;-62
2023/01/22 20:45:19;;;;;;;47.80;24.60;;;1.90;99.90;;;;;;7347798;32;20098;-61
2023/01/22 20:49:21;;;;;;;43.55;23.40;;;2.00;99.90;;;;;;7335954;32;21901;-61
2023/01/22 20:53:24;;;;;;;45.03;24.37;;;2.00;99.90;;;;;;7346772;32;20522;-61
2023/01/22 20:57:26;;;;;;;45.53;24.70;;;2.00;99.90;;;;;;7348203;32;20168;-61
2023/01/22 21:01:28;;;;;;;43.30;22.87;;;1.90;99.90;;;;;;7341693;32;20256;-61
2023/01/22 21:05:30;;;;;;;45.50;24.37;;;1.90;99.90;;;;;;7345463;32;20150;-61